Onemo, Virginia
Current Conditions -  °F | °C
As of 12:15 PM on Sunday 23 Nov 2014 (Local Time) from KW75 Reporting Station
Clear Clear  
Wind Chill: 51°   Ceiling: Unl
Heat Index: 51°   Visibility: 10mi
Dew Point: 40°   Wind: 3mph
Humidity: 66%   Direction: 120°ESE
Pressure: 30.2"   Gusts: NA
Location:  37.4°N, 76.27°W
Report Text: KW75 231715Z AUTO 12003KT 10SM CLR 11/04 A3020 RMK AO1 T01050044
Loading
Personal Weather Stations






























Interactive Weather Map New forecast layout! Learn more

10-Day Weather Forecast

Advertisements
Track Severe Weather on mobile